Hanska, Minnesota
Current Conditions -  °F | °C
As of 11:54 AM on Saturday 25 Oct 2014 (Local Time) from KULM Reporting Station
Clear Clear  
Wind Chill: 61°   Ceiling: Unl
Heat Index: 61°   Visibility: 10mi
Dew Point: 36°   Wind: 12mph
Humidity: 39%   Direction: 320°NW
Pressure: 30.12"   Gusts: 18mph
Location:  44.15°N, 94.49°W
Report Text: KULM 251654Z AUTO 32010G16KT 10SM CLR 16/02 A3012 RMK AO2
Loading
Personal Weather Stations






























Interactive Weather Map New forecast layout! Learn more

10-Day Weather Forecast

Advertisements
Track Severe Weather on mobile